Time;durP1;ratioP1;P1;durP2;ratioP2;P2;SDS_P1;SDS_P2;PMS_P1;PMS_P2;Temp;Humidity;BMP_temperature;BMP_pressure;BME280_temperature;BME280_humidity;BME280_pressure;Samples;Min_cycle;Max_cycle;Signal;HPM_P1;HPM_P2
2021/03/13 00:00:49;;;;;;;12.60;10.38;;;4.80;99.90;;;;;;4985349;28;20503;-76
2021/03/13 00:03:16;;;;;;;13.27;10.00;;;4.80;99.90;;;;;;5001165;28;20113;-78
2021/03/13 00:05:44;;;;;;;11.40;10.32;;;4.80;99.90;;;;;;4984978;28;20051;-77
2021/03/13 00:08:11;;;;;;;11.45;10.35;;;4.80;99.90;;;;;;4993384;28;20060;-77
2021/03/13 00:10:40;;;;;;;12.23;10.00;;;4.90;99.90;;;;;;4965731;28;20499;-78
2021/03/13 00:13:07;;;;;;;11.27;10.02;;;4.90;99.90;;;;;;4986767;28;20093;-78
2021/03/13 00:15:34;;;;;;;11.18;10.10;;;4.90;99.90;;;;;;4993097;28;20042;-77
2021/03/13 00:18:02;;;;;;;10.88;9.98;;;5.00;99.90;;;;;;4953899;28;20085;-76
2021/03/13 00:20:30;;;;;;;11.60;10.50;;;5.00;99.90;;;;;;4987787;28;20594;-77
2021/03/13 00:22:58;;;;;;;12.00;10.77;;;5.00;99.90;;;;;;4976676;28;20058;-80
2021/03/13 00:25:27;;;;;;;11.45;9.70;;;4.90;99.90;;;;;;4988893;28;20254;-77
2021/03/13 00:27:53;;;;;;;10.52;9.52;;;4.90;99.90;;;;;;4969170;28;20053;-79
2021/03/13 00:30:23;;;;;;;10.40;9.68;;;4.90;99.90;;;;;;4984034;28;20052;-78
2021/03/13 00:33:05;;;;;;;10.50;9.13;;;5.00;99.90;;;;;;4969913;28;20048;-79
2021/03/13 00:35:32;;;;;;;11.05;10.07;;;5.00;99.90;;;;;;5005035;28;20050;-79
2021/03/13 00:38:00;;;;;;;10.45;9.35;;;5.00;99.90;;;;;;4983735;28;20058;-79
2021/03/13 00:40:29;;;;;;;11.20;9.93;;;5.00;99.90;;;;;;5021179;28;20053;-77
2021/03/13 00:42:56;;;;;;;10.77;9.98;;;5.00;99.90;;;;;;4990062;28;20050;-78
2021/03/13 00:45:25;;;;;;;13.88;9.98;;;5.00;99.90;;;;;;4988505;28;20121;-79
2021/03/13 00:47:56;;;;;;;10.80;9.50;;;5.00;99.90;;;;;;4988836;28;20089;-83
2021/03/13 00:50:24;;;;;;;9.43;8.77;;;5.00;99.90;;;;;;4989555;28;20050;-78
2021/03/13 00:52:51;;;;;;;10.57;9.57;;;5.00;99.90;;;;;;4986683;28;20049;-79
2021/03/13 00:55:18;;;;;;;10.90;9.80;;;5.00;99.90;;;;;;5009758;28;20042;-77
2021/03/13 00:57:50;;;;;;;10.07;9.07;;;5.00;99.90;;;;;;5004386;28;20491;-77
2021/03/13 01:00:38;;;;;;;10.20;9.35;;;5.00;99.90;;;;;;4991608;28;20061;-79
2021/03/13 01:03:06;;;;;;;12.80;10.07;;;4.90;99.90;;;;;;4988729;28;20057;-77
2021/03/13 01:05:34;;;;;;;16.52;10.18;;;4.90;99.90;;;;;;4988292;28;20133;-78
2021/03/13 01:08:03;;;;;;;12.57;10.15;;;4.90;99.90;;;;;;4988903;28;20066;-78
2021/03/13 01:10:48;;;;;;;10.50;9.65;;;5.00;99.90;;;;;;4970484;28;20121;-78
2021/03/13 01:13:17;;;;;;;10.32;9.32;;;5.00;99.90;;;;;;4987937;28;20046;-79
2021/03/13 01:15:44;;;;;;;10.82;9.75;;;4.90;99.90;;;;;;4971722;28;20056;-78
2021/03/13 01:18:11;;;;;;;10.52;9.63;;;4.90;99.90;;;;;;5005243;28;20058;-77
2021/03/13 01:20:38;;;;;;;11.02;9.65;;;5.00;99.90;;;;;;4986799;28;20049;-79
2021/03/13 01:23:05;;;;;;;11.63;10.20;;;4.90;99.90;;;;;;4969477;28;20098;-78
2021/03/13 01:25:31;;;;;;;10.48;9.57;;;4.90;99.90;;;;;;5003299;28;20416;-79
2021/03/13 01:27:57;;;;;;;11.07;9.05;;;5.00;99.90;;;;;;5004046;28;20086;-78
2021/03/13 01:30:24;;;;;;;10.25;9.52;;;5.00;99.90;;;;;;5014518;28;20043;-78
2021/03/13 01:32:53;;;;;;;11.65;10.50;;;4.90;99.90;;;;;;4985911;28;20058;-77
2021/03/13 01:35:21;;;;;;;10.50;9.68;;;4.90;99.90;;;;;;4954188;28;20072;-78
2021/03/13 01:37:48;;;;;;;10.20;9.20;;;4.90;99.90;;;;;;4987468;28;20511;-78
2021/03/13 01:40:17;;;;;;;10.52;9.50;;;4.90;99.90;;;;;;5001477;28;20575;-79
2021/03/13 01:42:45;;;;;;;10.10;9.27;;;4.80;99.90;;;;;;4987356;28;20416;-80
2021/03/13 01:45:21;;;;;;;12.95;11.32;;;4.80;99.90;;;;;;4983834;28;20438;-79
2021/03/13 01:47:53;;;;;;;10.43;9.48;;;4.80;99.90;;;;;;4971995;28;20053;-78
2021/03/13 01:50:23;;;;;;;10.30;8.52;;;4.70;99.90;;;;;;5004164;28;20472;-78
2021/03/13 01:52:50;;;;;;;12.10;9.30;;;4.80;99.90;;;;;;4987604;28;20089;-78
2021/03/13 01:55:19;;;;;;;9.88;8.88;;;4.80;99.90;;;;;;4988255;28;20062;-77
2021/03/13 01:57:52;;;;;;;9.85;8.80;;;4.70;99.90;;;;;;4987769;28;20482;-78
2021/03/13 02:00:23;;;;;;;10.73;9.70;;;4.80;99.90;;;;;;4987685;28;20058;-78
2021/03/13 02:02:54;;;;;;;11.07;9.68;;;4.80;99.90;;;;;;5019546;28;20153;-81
2021/03/13 02:05:27;;;;;;;9.80;8.93;;;4.80;99.90;;;;;;4970930;28;20050;-77
2021/03/13 02:08:10;;;;;;;12.25;8.65;;;4.90;99.90;;;;;;4987578;28;20154;-78
2021/03/13 02:11:01;;;;;;;11.88;8.45;;;4.90;99.90;;;;;;4987597;28;20558;-78
2021/03/13 02:13:39;;;;;;;9.23;8.38;;;5.00;99.90;;;;;;5003614;28;20302;-83
2021/03/13 02:16:33;;;;;;;13.93;9.73;;;5.00;99.90;;;;;;4989938;28;20165;-78
2021/03/13 02:19:18;;;;;;;10.15;8.88;;;5.00;99.90;;;;;;5004513;28;20050;-78
2021/03/13 02:22:08;;;;;;;9.70;8.55;;;5.00;99.90;;;;;;4986396;28;20049;-78
2021/03/13 02:25:21;;;;;;;9.80;8.80;;;4.90;99.90;;;;;;4971466;28;20133;-80
2021/03/13 02:28:35;;;;;;;9.40;7.95;;;4.90;99.90;;;;;;4976075;28;20046;-78
2021/03/13 02:31:03;;;;;;;9.77;7.43;;;4.90;99.90;;;;;;4934084;28;20471;-80
2021/03/13 02:33:34;;;;;;;8.10;7.40;;;4.90;99.90;;;;;;4976399;28;20484;-79
2021/03/13 02:36:25;;;;;;;10.85;8.18;;;4.90;99.90;;;;;;4975695;28;20043;-78
2021/03/13 02:39:06;;;;;;;14.57;8.43;;;4.90;99.90;;;;;;4987762;28;20062;-81
2021/03/13 02:41:42;;;;;;;9.13;8.20;;;4.90;99.90;;;;;;5019720;28;20048;-79
2021/03/13 02:44:14;;;;;;;10.40;7.35;;;4.90;99.90;;;;;;4967335;28;20050;-78
2021/03/13 02:46:51;;;;;;;9.82;6.70;;;4.90;99.90;;;;;;4995693;28;20062;-76
2021/03/13 02:49:25;;;;;;;7.95;6.40;;;4.90;99.90;;;;;;5003548;28;20050;-78
2021/03/13 02:52:01;;;;;;;9.40;7.10;;;5.00;99.90;;;;;;4987418;28;20042;-77
2021/03/13 02:54:30;;;;;;;7.68;6.93;;;5.10;99.90;;;;;;4970538;28;20622;-77
2021/03/13 02:57:00;;;;;;;8.88;6.78;;;5.10;99.90;;;;;;4987087;28;20107;-77
2021/03/13 02:59:28;;;;;;;9.80;6.30;;;5.10;99.90;;;;;;4987155;28;20054;-76
2021/03/13 03:02:08;;;;;;;6.40;5.90;;;5.10;99.90;;;;;;5000558;28;20062;-77
2021/03/13 03:04:38;;;;;;;6.32;5.75;;;5.10;99.90;;;;;;4986820;28;20074;-81
2021/03/13 03:07:05;;;;;;;6.70;5.82;;;5.10;99.90;;;;;;4972329;28;20609;-78
2021/03/13 03:09:32;;;;;;;6.15;5.60;;;5.10;99.90;;;;;;4957273;28;20046;-79
2021/03/13 03:12:00;;;;;;;6.82;6.15;;;5.10;99.90;;;;;;5004019;28;20056;-80
2021/03/13 03:14:30;;;;;;;6.60;6.20;;;5.10;99.90;;;;;;5003240;28;20082;-78
2021/03/13 03:16:59;;;;;;;6.75;5.60;;;5.10;99.90;;;;;;4994252;28;20058;-79
2021/03/13 03:19:34;;;;;;;6.40;6.00;;;5.10;99.90;;;;;;4971358;28;20056;-80
2021/03/13 03:22:08;;;;;;;5.75;5.25;;;5.10;99.90;;;;;;4985204;28;20441;-79
2021/03/13 03:24:34;;;;;;;6.00;5.60;;;5.10;99.90;;;;;;4986738;28;20054;-78
2021/03/13 03:27:04;;;;;;;6.72;6.07;;;5.10;99.90;;;;;;4985462;28;20049;-78
2021/03/13 03:29:34;;;;;;;6.53;6.03;;;5.10;99.90;;;;;;4997411;28;20049;-81
2021/03/13 03:32:02;;;;;;;6.68;6.07;;;5.10;99.90;;;;;;4977993;28;20159;-80
2021/03/13 03:34:29;;;;;;;6.22;5.53;;;5.10;99.90;;;;;;4988315;28;20085;-79
2021/03/13 03:36:57;;;;;;;6.72;6.22;;;5.20;99.90;;;;;;5002318;28;20137;-78
2021/03/13 03:39:24;;;;;;;7.15;6.70;;;5.10;99.90;;;;;;4984995;28;20050;-78
2021/03/13 03:41:54;;;;;;;7.72;7.13;;;5.10;99.90;;;;;;4987373;28;20133;-78
2021/03/13 03:44:25;;;;;;;6.78;6.43;;;5.20;99.90;;;;;;4965433;28;20052;-78
2021/03/13 03:47:04;;;;;;;6.82;6.50;;;5.20;99.90;;;;;;4988333;28;20046;-79
2021/03/13 03:49:35;;;;;;;8.23;7.40;;;5.20;99.90;;;;;;4987362;28;20054;-78
2021/03/13 03:52:13;;;;;;;10.38;8.52;;;5.20;99.90;;;;;;4985640;28;20815;-79
2021/03/13 03:54:41;;;;;;;8.73;7.97;;;5.20;99.90;;;;;;4967199;28;20054;-80
2021/03/13 03:57:09;;;;;;;8.50;7.80;;;5.20;99.90;;;;;;4982273;28;20056;-78
2021/03/13 03:59:36;;;;;;;8.32;7.63;;;5.20;99.90;;;;;;4987466;28;20241;-79
2021/03/13 04:02:03;;;;;;;7.60;7.00;;;5.20;99.90;;;;;;4986606;28;20054;-80
2021/03/13 04:04:32;;;;;;;8.88;8.07;;;5.20;99.90;;;;;;4987470;28;20109;-80
2021/03/13 04:06:59;;;;;;;9.13;8.32;;;5.20;99.90;;;;;;4970986;28;20093;-79
2021/03/13 04:09:27;;;;;;;7.75;7.25;;;5.20;99.90;;;;;;4987305;28;20142;-78
2021/03/13 04:11:56;;;;;;;8.38;7.78;;;5.10;99.90;;;;;;4987320;28;20070;-81
2021/03/13 04:14:23;;;;;;;10.00;9.15;;;5.10;99.90;;;;;;4987038;28;20069;-81
2021/03/13 04:16:50;;;;;;;8.13;7.55;;;5.10;99.90;;;;;;5004029;28;20074;-79
2021/03/13 04:19:17;;;;;;;8.38;7.80;;;5.10;99.90;;;;;;4988266;28;20046;-79
2021/03/13 04:21:46;;;;;;;6.38;5.97;;;5.10;99.90;;;;;;5003934;28;20053;-79
2021/03/13 04:24:15;;;;;;;6.30;5.93;;;5.10;99.90;;;;;;5020631;28;20050;-76
2021/03/13 04:26:43;;;;;;;5.25;4.95;;;5.00;99.90;;;;;;4988009;28;20109;-79
2021/03/13 04:29:10;;;;;;;5.15;4.75;;;5.00;99.90;;;;;;4987769;28;20098;-79
2021/03/13 04:31:38;;;;;;;5.93;4.82;;;5.00;99.90;;;;;;4990661;28;20157;-82
2021/03/13 04:34:05;;;;;;;4.30;4.00;;;5.00;99.90;;;;;;5005425;28;20294;-80
2021/03/13 04:36:32;;;;;;;3.58;3.35;;;5.00;99.90;;;;;;4989255;28;20051;-78
2021/03/13 04:39:02;;;;;;;7.32;6.90;;;4.90;99.90;;;;;;4987043;28;20181;-81
2021/03/13 04:41:31;;;;;;;7.20;6.80;;;4.90;99.90;;;;;;5001832;28;20050;-82
2021/03/13 04:43:58;;;;;;;8.10;7.40;;;4.90;99.90;;;;;;4996416;28;20034;-85
2021/03/13 04:46:25;;;;;;;7.10;6.60;;;4.90;99.90;;;;;;5012351;28;20030;-84
2021/03/13 04:48:52;;;;;;;6.50;6.00;;;4.90;99.90;;;;;;5012824;28;20042;-80
2021/03/13 04:51:19;;;;;;;6.05;5.65;;;4.90;99.90;;;;;;5011645;28;20045;-84
2021/03/13 04:53:46;;;;;;;5.40;5.10;;;4.80;99.90;;;;;;5027531;28;20054;-82
2021/03/13 04:56:13;;;;;;;5.88;5.32;;;4.80;99.90;;;;;;5027364;28;20135;-83
2021/03/13 04:58:39;;;;;;;5.47;5.18;;;4.80;99.90;;;;;;5027463;28;20073;-82
2021/03/13 05:01:06;;;;;;;6.05;5.60;;;4.80;99.90;;;;;;5027199;28;20051;-83
2021/03/13 05:03:39;;;;;;;5.70;5.30;;;4.80;99.90;;;;;;5027761;28;20057;-81
2021/03/13 05:06:06;;;;;;;5.75;5.22;;;4.80;99.90;;;;;;4996372;28;20038;-83
2021/03/13 05:08:32;;;;;;;5.68;4.97;;;4.80;99.90;;;;;;5012295;28;20030;-82
2021/03/13 05:10:59;;;;;;;5.60;5.07;;;4.70;99.90;;;;;;4986933;28;20057;-77
2021/03/13 05:13:25;;;;;;;6.03;5.10;;;4.70;99.90;;;;;;5004022;28;20054;-79
2021/03/13 05:15:52;;;;;;;6.13;5.63;;;4.70;99.90;;;;;;4988349;28;20153;-79
2021/03/13 05:18:18;;;;;;;6.35;5.30;;;4.70;99.90;;;;;;4986822;28;20054;-79
2021/03/13 05:20:45;;;;;;;6.65;6.05;;;4.70;99.90;;;;;;4988257;28;20571;-79
2021/03/13 05:23:11;;;;;;;6.85;6.35;;;4.70;99.90;;;;;;4971772;28;20101;-79
2021/03/13 05:25:38;;;;;;;6.65;6.15;;;4.70;99.90;;;;;;4987741;28;20082;-83
2021/03/13 05:28:04;;;;;;;6.57;6.18;;;4.70;99.90;;;;;;4988645;28;20558;-77
2021/03/13 05:30:31;;;;;;;6.80;6.30;;;4.70;99.90;;;;;;4986805;28;20050;-78
2021/03/13 05:32:57;;;;;;;6.10;5.60;;;4.70;99.90;;;;;;5021657;28;20058;-77
2021/03/13 05:35:23;;;;;;;5.63;5.15;;;4.80;99.90;;;;;;4983743;28;20082;-79
2021/03/13 05:37:50;;;;;;;6.00;5.40;;;4.80;99.90;;;;;;4988564;28;20080;-79
2021/03/13 05:40:17;;;;;;;5.13;4.82;;;4.80;99.90;;;;;;4994467;28;20050;-78
2021/03/13 05:42:43;;;;;;;5.13;4.82;;;4.80;99.90;;;;;;5001049;28;20050;-77
2021/03/13 05:45:10;;;;;;;6.45;5.85;;;4.80;99.90;;;;;;4971944;28;20542;-77
2021/03/13 05:47:38;;;;;;;5.18;4.88;;;4.80;99.90;;;;;;4989906;28;20061;-77
2021/03/13 05:50:12;;;;;;;5.10;4.80;;;4.80;99.90;;;;;;4989762;28;20065;-77
2021/03/13 05:52:39;;;;;;;4.88;4.53;;;4.80;99.90;;;;;;4973948;28;20054;-80
2021/03/13 05:55:08;;;;;;;4.65;4.45;;;4.90;99.90;;;;;;4990319;28;20054;-77
2021/03/13 05:57:35;;;;;;;5.10;4.80;;;4.90;99.90;;;;;;5022955;28;20073;-79
2021/03/13 06:00:06;;;;;;;5.22;4.82;;;4.80;99.90;;;;;;4993894;28;20062;-79
2021/03/13 06:02:39;;;;;;;5.13;4.88;;;4.80;99.90;;;;;;4996183;28;20114;-78
2021/03/13 06:05:06;;;;;;;5.13;4.75;;;4.70;99.90;;;;;;5007532;28;20046;-79
2021/03/13 06:07:33;;;;;;;5.00;4.70;;;4.80;99.90;;;;;;4974587;28;20060;-80
2021/03/13 06:10:00;;;;;;;4.75;4.45;;;4.80;99.90;;;;;;5008342;28;20077;-78
2021/03/13 06:12:26;;;;;;;4.70;4.43;;;4.70;99.90;;;;;;5024879;28;20466;-79
2021/03/13 06:14:54;;;;;;;4.00;3.80;;;4.70;99.90;;;;;;5008436;28;20139;-76
2021/03/13 06:17:24;;;;;;;3.80;3.60;;;4.70;99.90;;;;;;4974868;28;20368;-77
2021/03/13 06:19:58;;;;;;;3.70;3.50;;;4.70;99.90;;;;;;4986699;28;20063;-77
2021/03/13 06:22:36;;;;;;;3.28;3.08;;;4.70;99.90;;;;;;5004234;28;20073;-79
2021/03/13 06:25:24;;;;;;;3.60;3.40;;;4.70;99.90;;;;;;4952211;28;20064;-77
2021/03/13 06:28:03;;;;;;;3.40;3.20;;;4.70;99.90;;;;;;4969359;28;20478;-77
2021/03/13 06:30:36;;;;;;;2.97;2.85;;;4.70;99.90;;;;;;4979159;28;20121;-78
2021/03/13 06:33:22;;;;;;;3.35;3.15;;;4.70;99.90;;;;;;4972611;28;20105;-77
2021/03/13 06:35:50;;;;;;;4.82;3.90;;;4.70;99.90;;;;;;5002376;28;20050;-77
2021/03/13 06:38:20;;;;;;;3.38;3.17;;;4.70;99.90;;;;;;4986065;28;20070;-80
2021/03/13 06:40:48;;;;;;;3.90;3.70;;;4.70;99.90;;;;;;5018276;28;20050;-77
2021/03/13 06:43:22;;;;;;;4.10;3.90;;;4.70;99.90;;;;;;4985083;28;20034;-78
2021/03/13 06:46:06;;;;;;;3.95;3.80;;;4.70;99.90;;;;;;4983882;28;20141;-79
2021/03/13 06:48:50;;;;;;;4.32;4.03;;;4.80;99.90;;;;;;4991727;28;20050;-80
2021/03/13 06:51:39;;;;;;;4.00;3.85;;;4.80;99.90;;;;;;4987719;28;20046;-77
2021/03/13 06:54:15;;;;;;;4.38;4.18;;;4.80;99.90;;;;;;4994376;28;20125;-78
2021/03/13 06:56:47;;;;;;;5.00;4.72;;;4.80;99.90;;;;;;4967103;28;20081;-81
2021/03/13 06:59:25;;;;;;;3.97;3.78;;;4.90;99.90;;;;;;4985691;28;20578;-78
2021/03/13 07:02:04;;;;;;;4.28;3.97;;;4.90;99.90;;;;;;4984362;28;20054;-79
2021/03/13 07:04:32;;;;;;;3.83;3.63;;;4.90;99.90;;;;;;5001747;28;20507;-79
2021/03/13 07:06:58;;;;;;;3.80;3.60;;;4.90;99.90;;;;;;4967937;28;20503;-77
2021/03/13 07:09:48;;;;;;;3.72;3.58;;;4.90;99.90;;;;;;4985100;28;20358;-80
2021/03/13 07:12:28;;;;;;;3.90;3.70;;;4.90;99.90;;;;;;5004952;28;20047;-78
2021/03/13 07:15:24;;;;;;;4.30;4.10;;;4.90;99.90;;;;;;4981462;28;20082;-79
2021/03/13 07:17:58;;;;;;;4.22;4.03;;;4.90;99.90;;;;;;4986954;28;20064;-80
2021/03/13 07:20:35;;;;;;;4.45;4.05;;;5.00;99.90;;;;;;4972184;28;20132;-78
2021/03/13 07:23:04;;;;;;;3.92;3.78;;;5.00;99.90;;;;;;4987591;28;20050;-78
2021/03/13 07:25:31;;;;;;;4.10;3.90;;;5.00;99.90;;;;;;4986099;28;20058;-78
2021/03/13 07:28:00;;;;;;;4.03;3.83;;;5.00;99.90;;;;;;4982257;28;20062;-77
2021/03/13 07:30:29;;;;;;;3.42;3.33;;;5.00;99.90;;;;;;5018623;28;20052;-78
2021/03/13 07:33:03;;;;;;;3.50;3.30;;;5.10;99.90;;;;;;5003002;28;20058;-79
2021/03/13 07:35:41;;;;;;;4.30;4.10;;;5.10;99.90;;;;;;4985595;28;20133;-76
2021/03/13 07:38:12;;;;;;;4.53;4.32;;;5.10;99.90;;;;;;4982086;28;20062;-78
2021/03/13 07:40:43;;;;;;;5.97;5.57;;;5.20;99.90;;;;;;4963466;28;20126;-77
2021/03/13 07:43:12;;;;;;;8.48;6.95;;;5.20;99.90;;;;;;4978330;28;20046;-78
2021/03/13 07:45:39;;;;;;;23.25;11.75;;;5.30;99.90;;;;;;4988920;28;20239;-77
2021/03/13 07:48:09;;;;;;;5.75;5.25;;;5.30;99.90;;;;;;4986757;28;20091;-76
2021/03/13 07:50:36;;;;;;;5.00;4.80;;;5.30;99.90;;;;;;4957426;28;20621;-80
2021/03/13 07:53:05;;;;;;;5.63;5.32;;;5.40;99.90;;;;;;4985968;28;20359;-79
2021/03/13 07:55:32;;;;;;;6.07;5.68;;;5.50;99.90;;;;;;4986553;28;20077;-80
2021/03/13 07:57:59;;;;;;;5.07;4.88;;;5.50;99.90;;;;;;5018018;28;20653;-81
2021/03/13 08:00:45;;;;;;;5.63;5.32;;;5.50;99.90;;;;;;4970345;28;20078;-77
2021/03/13 08:03:38;;;;;;;5.75;5.53;;;5.60;99.90;;;;;;4988002;28;20108;-78
2021/03/13 08:06:07;;;;;;;5.25;5.00;;;5.70;99.90;;;;;;4987041;28;20046;-81
2021/03/13 08:08:47;;;;;;;5.68;5.47;;;5.70;99.90;;;;;;4986508;28;20416;-79
2021/03/13 08:11:18;;;;;;;5.68;5.47;;;5.80;99.90;;;;;;4998920;28;20134;-78
2021/03/13 08:13:59;;;;;;;5.60;5.40;;;5.90;99.90;;;;;;4979102;28;20447;-78
2021/03/13 08:16:38;;;;;;;6.00;5.70;;;5.90;99.90;;;;;;5013822;28;20078;-83
2021/03/13 08:19:26;;;;;;;6.57;6.38;;;6.00;99.90;;;;;;4988080;28;20058;-79
2021/03/13 08:22:08;;;;;;;8.18;7.82;;;6.10;99.90;;;;;;4993921;28;20077;-78
2021/03/13 08:24:43;;;;;;;8.00;7.70;;;6.20;99.90;;;;;;4986279;28;20062;-78
2021/03/13 08:27:11;;;;;;;10.52;9.75;;;6.20;99.90;;;;;;5001656;28;20125;-79
2021/03/13 08:29:54;;;;;;;8.40;7.90;;;6.20;99.90;;;;;;4970157;28;20042;-79
2021/03/13 08:32:59;;;;;;;8.30;7.68;;;6.30;99.90;;;;;;4963667;28;20054;-77
2021/03/13 08:35:37;;;;;;;7.45;7.15;;;6.30;99.90;;;;;;5002953;28;20051;-78
2021/03/13 08:38:04;;;;;;;7.55;7.25;;;6.40;99.90;;;;;;4984025;28;20043;-79
2021/03/13 08:40:31;;;;;;;7.65;7.35;;;6.50;99.90;;;;;;4991693;28;20043;-80
2021/03/13 08:42:57;;;;;;;8.00;7.70;;;6.50;99.90;;;;;;4973325;28;20054;-77
2021/03/13 08:45:33;;;;;;;8.55;8.25;;;6.60;99.90;;;;;;5005587;28;20061;-77
2021/03/13 08:48:00;;;;;;;8.00;7.70;;;6.80;99.90;;;;;;5006114;28;20098;-78
2021/03/13 08:50:45;;;;;;;8.07;7.68;;;6.90;99.90;;;;;;4978105;28;20050;-78
2021/03/13 08:53:34;;;;;;;7.60;7.30;;;7.00;99.90;;;;;;5005874;28;20060;-77
2021/03/13 08:56:02;;;;;;;9.10;8.63;;;7.10;99.90;;;;;;5006271;28;20046;-79
2021/03/13 08:58:42;;;;;;;9.82;9.40;;;7.30;99.90;;;;;;5022286;28;20475;-78
2021/03/13 09:01:18;;;;;;;9.95;9.40;;;7.30;99.90;;;;;;5021944;28;20128;-79
2021/03/13 09:03:49;;;;;;;9.32;8.73;;;7.30;99.90;;;;;;5005464;28;20104;-82
2021/03/13 09:06:22;;;;;;;7.72;7.43;;;7.20;99.90;;;;;;4987842;28;20064;-78
2021/03/13 09:08:48;;;;;;;6.90;6.40;;;7.10;99.90;;;;;;4988703;28;20061;-78
2021/03/13 09:11:26;;;;;;;7.90;7.60;;;7.00;99.90;;;;;;4979591;28;20133;-77
2021/03/13 09:13:59;;;;;;;7.40;6.93;;;5.40;99.90;;;;;;4979213;28;20149;-78
2021/03/13 09:16:26;;;;;;;5.57;5.25;;;3.90;99.90;;;;;;4999802;28;20078;-77
2021/03/13 09:18:54;;;;;;;4.60;4.40;;;3.50;99.90;;;;;;5011755;28;20055;-77
2021/03/13 09:21:42;;;;;;;4.93;4.53;;;3.20;99.90;;;;;;4987161;28;20148;-78
2021/03/13 09:24:11;;;;;;;4.20;4.00;;;3.20;99.90;;;;;;5004324;28;20054;-77
2021/03/13 09:26:38;;;;;;;4.50;4.30;;;3.50;99.90;;;;;;4973361;28;20148;-77
2021/03/13 09:29:05;;;;;;;7.20;6.50;;;3.80;99.90;;;;;;4987482;28;20046;-78
2021/03/13 09:31:33;;;;;;;8.18;7.35;;;4.00;99.90;;;;;;4966856;28;20142;-80
2021/03/13 09:34:13;;;;;;;7.63;7.25;;;4.30;99.90;;;;;;4978310;28;20569;-76
2021/03/13 09:36:56;;;;;;;8.88;8.35;;;4.60;99.90;;;;;;4969576;28;20062;-79
2021/03/13 09:39:27;;;;;;;9.23;8.73;;;4.80;99.90;;;;;;4988453;28;20133;-77
2021/03/13 09:42:05;;;;;;;8.98;8.30;;;4.90;99.90;;;;;;4986530;28;20050;-78
2021/03/13 09:44:43;;;;;;;9.30;8.80;;;5.00;99.90;;;;;;4987894;28;20134;-78
2021/03/13 09:47:29;;;;;;;10.57;10.18;;;5.10;99.90;;;;;;4999118;28;20046;-81
2021/03/13 09:49:58;;;;;;;11.52;10.82;;;5.20;99.90;;;;;;5002877;28;20078;-77
2021/03/13 09:52:29;;;;;;;10.20;9.70;;;5.30;99.90;;;;;;4983983;28;20086;-78
2021/03/13 09:55:18;;;;;;;12.02;11.35;;;5.40;99.90;;;;;;4985468;28;20081;-78
2021/03/13 09:57:49;;;;;;;12.43;11.65;;;5.50;99.90;;;;;;4954442;28;20051;-80
2021/03/13 10:00:22;;;;;;;11.27;10.80;;;5.60;99.90;;;;;;4968627;28;20069;-81
2021/03/13 10:02:53;;;;;;;11.60;10.63;;;5.70;99.90;;;;;;4987391;28;20150;-80
2021/03/13 10:05:26;;;;;;;12.68;11.68;;;5.80;99.90;;;;;;4987093;28;20058;-78
2021/03/13 10:07:52;;;;;;;12.23;11.63;;;5.90;99.90;;;;;;4987565;28;20149;-77
2021/03/13 10:10:27;;;;;;;12.38;11.55;;;5.80;99.90;;;;;;4969715;28;20047;-80
2021/03/13 10:13:04;;;;;;;10.82;9.77;;;5.80;99.90;;;;;;5003759;28;20057;-80
2021/03/13 10:15:36;;;;;;;10.07;9.57;;;5.90;99.90;;;;;;4989041;28;20078;-78
2021/03/13 10:18:14;;;;;;;10.02;9.43;;;5.90;99.90;;;;;;4986257;28;20050;-78
2021/03/13 10:20:47;;;;;;;9.32;8.93;;;5.90;99.90;;;;;;4986315;28;20042;-79
2021/03/13 10:23:24;;;;;;;9.70;8.95;;;5.90;99.90;;;;;;4987269;28;20422;-78
2021/03/13 10:25:55;;;;;;;9.60;9.05;;;5.90;99.90;;;;;;5002891;28;20056;-78
2021/03/13 10:28:27;;;;;;;11.00;9.95;;;6.00;99.90;;;;;;4971097;28;20146;-78
2021/03/13 10:31:10;;;;;;;10.40;9.70;;;5.90;99.90;;;;;;4970592;28;20081;-77
2021/03/13 10:33:41;;;;;;;11.10;10.10;;;6.00;99.90;;;;;;4988307;28;20050;-79
2021/03/13 10:36:08;;;;;;;10.30;9.70;;;6.10;99.90;;;;;;4978914;28;20061;-77
2021/03/13 10:38:42;;;;;;;9.85;9.18;;;6.10;99.90;;;;;;4979915;28;20073;-81
2021/03/13 10:41:17;;;;;;;10.07;9.45;;;6.20;99.90;;;;;;4984543;28;20046;-80
2021/03/13 10:43:47;;;;;;;10.18;9.23;;;6.20;99.90;;;;;;4999080;28;20046;-79
2021/03/13 10:46:19;;;;;;;9.57;8.98;;;6.20;99.90;;;;;;4986710;28;20141;-79
2021/03/13 10:48:53;;;;;;;10.43;9.77;;;6.30;99.90;;;;;;4970506;28;20050;-79
2021/03/13 10:51:26;;;;;;;10.60;9.70;;;6.30;99.90;;;;;;5003459;28;20495;-82
2021/03/13 10:53:54;;;;;;;11.15;10.13;;;6.30;99.90;;;;;;4988228;28;20680;-79
2021/03/13 10:56:21;;;;;;;9.45;8.85;;;6.30;99.90;;;;;;4982296;28;20138;-78
2021/03/13 10:58:58;;;;;;;9.65;8.80;;;6.40;99.90;;;;;;4970907;28;20038;-80
2021/03/13 11:01:25;;;;;;;9.70;8.90;;;6.40;99.90;;;;;;4985686;28;20050;-79
2021/03/13 11:03:55;;;;;;;8.32;7.82;;;6.40;99.90;;;;;;4987628;28;20157;-78
2021/03/13 11:06:33;;;;;;;8.70;8.10;;;6.40;99.90;;;;;;5003148;28;20089;-77
2021/03/13 11:09:18;;;;;;;9.48;7.60;;;6.50;99.90;;;;;;5002192;28;20061;-78
2021/03/13 11:11:44;;;;;;;8.45;7.72;;;6.50;99.90;;;;;;4981960;28;20047;-80
2021/03/13 11:14:11;;;;;;;7.90;7.50;;;6.60;99.90;;;;;;4987055;28;20555;-81
2021/03/13 11:16:37;;;;;;;11.50;10.80;;;6.60;99.90;;;;;;5001913;28;20140;-78
2021/03/13 11:19:05;;;;;;;10.93;10.10;;;6.70;99.90;;;;;;4994311;28;20050;-78
2021/03/13 11:21:32;;;;;;;11.07;10.18;;;6.60;99.90;;;;;;4986417;28;20515;-80
2021/03/13 11:23:58;;;;;;;11.35;10.80;;;6.50;99.90;;;;;;5003353;28;20149;-82
2021/03/13 11:26:25;;;;;;;12.68;11.88;;;6.50;99.90;;;;;;4970388;28;20050;-77
2021/03/13 11:28:52;;;;;;;14.38;13.13;;;6.50;99.90;;;;;;5000370;28;20050;-80
2021/03/13 11:31:19;;;;;;;13.10;12.23;;;6.70;99.90;;;;;;4969178;28;20137;-81
2021/03/13 11:33:46;;;;;;;13.25;12.55;;;6.90;99.90;;;;;;4967233;28;20051;-76
2021/03/13 11:36:13;;;;;;;12.95;12.35;;;7.20;99.90;;;;;;4984759;28;20431;-77
2021/03/13 11:38:40;;;;;;;13.38;12.48;;;7.40;99.90;;;;;;4967125;28;20046;-78
2021/03/13 11:41:09;;;;;;;12.38;11.77;;;7.70;99.90;;;;;;4953310;28;20670;-81
2021/03/13 11:43:38;;;;;;;17.40;12.27;;;7.80;99.90;;;;;;4978594;28;20092;-78
2021/03/13 11:46:05;;;;;;;12.95;12.15;;;7.70;99.90;;;;;;4977154;28;20042;-82
2021/03/13 11:48:32;;;;;;;12.23;11.45;;;7.60;99.90;;;;;;4970547;28;20411;-78
2021/03/13 11:50:58;;;;;;;12.73;11.93;;;7.40;99.90;;;;;;4960229;28;20190;-78
2021/03/13 11:53:25;;;;;;;12.52;11.82;;;7.30;99.90;;;;;;4983270;28;20077;-79
2021/03/13 11:55:55;;;;;;;13.10;12.05;;;7.30;99.90;;;;;;4954017;28;20085;-78
2021/03/13 11:58:21;;;;;;;12.95;12.18;;;7.30;99.90;;;;;;5002656;28;20066;-81
2021/03/13 12:01:07;;;;;;;11.85;11.25;;;7.30;99.90;;;;;;4952489;28;20042;-79
2021/03/13 12:03:34;;;;;;;12.90;11.80;;;7.50;99.90;;;;;;4981106;28;20054;-78
2021/03/13 12:06:00;;;;;;;12.57;11.70;;;7.40;99.90;;;;;;4984137;28;20062;-80
2021/03/13 12:08:27;;;;;;;12.27;11.77;;;7.60;99.90;;;;;;4985685;28;20186;-79
2021/03/13 12:10:53;;;;;;;12.45;11.85;;;7.70;99.90;;;;;;4993599;28;20050;-80
2021/03/13 12:13:19;;;;;;;12.98;12.27;;;7.90;99.90;;;;;;5005333;28;20085;-81
2021/03/13 12:15:46;;;;;;;13.75;12.52;;;7.90;99.90;;;;;;4989490;28;20047;-80
2021/03/13 12:18:12;;;;;;;11.88;11.02;;;8.00;99.90;;;;;;4973089;28;20054;-78
2021/03/13 12:20:39;;;;;;;12.55;11.65;;;8.00;99.90;;;;;;4956955;28;20122;-80
2021/03/13 12:23:05;;;;;;;11.85;11.13;;;8.10;99.90;;;;;;5006767;28;20055;-80
2021/03/13 12:25:32;;;;;;;12.00;11.23;;;8.30;99.90;;;;;;4989850;28;20507;-81
2021/03/13 12:27:58;;;;;;;12.43;11.10;;;8.40;99.90;;;;;;4989171;28;20050;-77
2021/03/13 12:30:25;;;;;;;11.52;10.70;;;8.20;99.90;;;;;;5005889;28;20132;-77
2021/03/13 12:32:51;;;;;;;11.45;10.60;;;8.10;99.90;;;;;;5005852;28;20085;-78
2021/03/13 12:35:19;;;;;;;11.35;10.40;;;7.90;99.90;;;;;;5004768;28;20621;-79
2021/03/13 12:37:45;;;;;;;13.95;10.70;;;7.90;99.90;;;;;;5021299;28;20130;-75
2021/03/13 12:40:12;;;;;;;10.98;10.38;;;7.70;99.90;;;;;;4987912;28;20050;-74
2021/03/13 12:42:39;;;;;;;11.02;10.30;;;7.30;99.90;;;;;;4988064;28;20226;-75
2021/03/13 12:45:07;;;;;;;11.68;10.82;;;6.90;99.90;;;;;;4987672;28;20117;-75
2021/03/13 12:47:34;;;;;;;12.95;11.75;;;6.90;99.90;;;;;;5004621;28;20105;-76
2021/03/13 12:50:02;;;;;;;11.82;10.60;;;7.10;99.90;;;;;;4988478;28;20065;-76
2021/03/13 12:52:28;;;;;;;11.55;10.52;;;7.10;99.90;;;;;;5004069;28;20070;-74
2021/03/13 12:54:56;;;;;;;12.57;9.88;;;7.00;99.90;;;;;;4971448;28;20046;-76
2021/03/13 12:57:23;;;;;;;12.55;11.00;;;7.00;99.90;;;;;;4987039;28;20137;-76
2021/03/13 12:59:49;;;;;;;10.40;9.48;;;7.10;99.90;;;;;;4986975;28;20165;-76
2021/03/13 13:02:15;;;;;;;11.20;10.02;;;6.80;99.90;;;;;;4971436;28;20077;-75
2021/03/13 13:04:42;;;;;;;13.82;11.30;;;6.60;99.90;;;;;;4989478;28;20459;-75
2021/03/13 13:07:08;;;;;;;11.77;10.57;;;6.60;99.90;;;;;;4988630;28;20511;-76
2021/03/13 13:09:41;;;;;;;10.15;9.43;;;6.60;99.90;;;;;;4973961;28;20702;-75
2021/03/13 13:12:08;;;;;;;12.73;9.82;;;6.90;99.90;;;;;;5003258;28;20149;-74